Time;durP1;ratioP1;P1;durP2;ratioP2;P2;SDS_P1;SDS_P2;PMS_P1;PMS_P2;Temp;Humidity;BMP_temperature;BMP_pressure;BME280_temperature;BME280_humidity;BME280_pressure;Samples;Min_cycle;Max_cycle;Signal;HPM_P1;HPM_P2
2021/12/15 00:01:35;;;;;;;1.00;0.80;;;;;;;8.21;73.41;101777.72;144993;587;6002;-85
2021/12/15 00:04:02;;;;;;;1.50;1.05;;;;;;;8.33;73.15;101778.38;144993;628;6002;-83
2021/12/15 00:06:28;;;;;;;1.83;1.20;;;;;;;8.38;72.82;101789.00;144992;570;6002;-84
2021/12/15 00:08:58;;;;;;;1.98;1.05;;;;;;;8.22;72.94;101782.06;144992;574;6002;-86
2021/12/15 00:11:32;;;;;;;1.20;0.93;;;;;;;8.14;73.51;101788.50;144993;649;6002;-83
2021/12/15 00:14:00;;;;;;;1.42;1.00;;;;;;;8.07;73.97;101795.03;144993;604;6002;-82
2021/12/15 00:16:28;;;;;;;1.60;0.90;;;;;;;7.95;74.73;101787.47;144993;594;6002;-83
2021/12/15 00:18:54;;;;;;;1.25;0.95;;;;;;;7.91;74.92;101788.09;144993;573;6002;-83
2021/12/15 00:21:21;;;;;;;0.95;0.82;;;;;;;8.14;74.50;101788.50;144994;603;5002;-84
2021/12/15 00:23:48;;;;;;;1.25;0.98;;;;;;;8.08;74.69;101785.56;144994;580;5002;-83
2021/12/15 00:26:16;;;;;;;0.98;0.70;;;;;;;8.13;74.47;101781.56;144994;621;5002;-82
2021/12/15 00:28:44;;;;;;;1.30;0.93;;;;;;;8.26;74.08;101777.97;144994;592;5002;-85
2021/12/15 00:31:12;;;;;;;2.00;1.20;;;;;;;8.22;74.38;101783.78;144994;577;5002;-83
2021/12/15 00:33:40;;;;;;;1.23;0.90;;;;;;;8.08;74.98;101776.13;144994;704;5002;-85
2021/12/15 00:36:08;;;;;;;2.03;1.20;;;;;;;7.98;75.90;101774.69;144994;566;5002;-85
2021/12/15 00:38:34;;;;;;;1.55;0.98;;;;;;;7.91;76.29;101774.28;144994;587;5002;-84
2021/12/15 00:41:02;;;;;;;1.75;1.20;;;;;;;8.02;75.06;101787.81;144994;584;5002;-83
2021/12/15 00:43:28;;;;;;;1.37;1.27;;;;;;;8.00;76.01;101790.31;144994;634;5002;-84
2021/12/15 00:45:55;;;;;;;2.75;1.25;;;;;;;7.90;76.20;101803.53;144994;606;5002;-83
2021/12/15 00:48:22;;;;;;;1.85;1.30;;;;;;;7.93;76.61;101799.41;144994;563;5002;-84
2021/12/15 00:50:49;;;;;;;1.90;1.62;;;;;;;7.88;75.89;101805.12;144994;649;5002;-85
2021/12/15 00:53:16;;;;;;;1.42;1.20;;;;;;;7.90;76.00;101813.84;144993;564;5002;-86
2021/12/15 00:55:44;;;;;;;1.90;1.48;;;;;;;7.95;75.75;101807.25;144994;565;5002;-83
2021/12/15 00:58:12;;;;;;;2.65;1.83;;;;;;;8.00;75.67;101808.41;144994;564;5002;-84
2021/12/15 01:00:46;;;;;;;2.10;1.40;;;;;;;7.99;75.86;101801.47;144994;566;5002;-84
2021/12/15 01:03:13;;;;;;;1.45;1.35;;;;;;;7.81;76.40;101799.59;144994;651;5002;-85
2021/12/15 01:05:48;;;;;;;2.05;1.35;;;;;;;7.77;76.65;101799.34;144994;666;5002;-83
2021/12/15 01:08:23;;;;;;;1.95;1.30;;;;;;;8.05;75.12;101806.09;144994;575;5002;-85
2021/12/15 01:19:48;;;;;;;2.20;1.70;;;;;;;8.35;75.96;101818.19;144994;714;5004;-86
2021/12/15 01:22:31;;;;;;;2.72;1.75;;;;;;;8.51;74.84;101811.28;144994;576;5004;-82
2021/12/15 01:25:06;;;;;;;3.62;1.98;;;;;;;8.66;74.65;101819.03;144994;577;5004;-85
2021/12/15 01:27:34;;;;;;;2.00;1.80;;;;;;;8.55;75.28;101823.63;144994;562;5005;-84
2021/12/15 01:30:01;;;;;;;2.40;1.60;;;;;;;8.63;75.31;101819.75;144994;581;5004;-84
2021/12/15 01:32:28;;;;;;;2.12;1.60;;;;;;;8.44;76.44;101819.53;144994;596;5004;-84
2021/12/15 01:34:54;;;;;;;2.58;1.90;;;;;;;8.47;76.00;101824.91;144994;579;5005;-83
2021/12/15 01:37:21;;;;;;;3.08;1.52;;;;;;;8.24;76.25;101818.38;144994;572;5004;-84
2021/12/15 01:39:53;;;;;;;2.75;2.00;;;;;;;8.20;76.81;101826.78;144994;595;5004;-84
2021/12/15 01:42:20;;;;;;;2.55;1.87;;;;;;;7.93;77.72;101819.22;144994;659;5004;-83
2021/12/15 01:47:31;;;;;;;2.20;1.90;;;;;;;7.84;77.92;101813.50;144994;600;5002;-84
2021/12/15 01:49:57;;;;;;;2.70;2.00;;;;;;;7.94;76.56;101818.41;144994;626;5002;-83
2021/12/15 01:52:31;;;;;;;2.12;1.73;;;;;;;8.00;76.33;101818.75;144994;692;5002;-84
2021/12/15 01:55:09;;;;;;;3.95;2.12;;;;;;;8.17;75.67;101819.72;144994;580;5002;-84
2021/12/15 01:57:37;;;;;;;3.30;2.40;;;;;;;8.04;76.13;101822.44;144994;648;5002;-84
2021/12/15 02:00:12;;;;;;;2.33;2.00;;;;;;;8.10;75.72;101830.53;144994;573;5002;-82
2021/12/15 02:02:38;;;;;;;2.83;1.80;;;;;;;8.23;74.47;101822.66;144994;606;5002;-83
2021/12/15 02:05:05;;;;;;;2.20;1.90;;;;;;;8.24;75.29;101827.03;144994;596;5002;-84
2021/12/15 02:07:32;;;;;;;2.35;2.08;;;;;;;8.39;74.43;101826.13;144994;623;5002;-84
2021/12/15 02:10:01;;;;;;;3.87;1.73;;;;;;;8.46;75.02;101818.84;144994;569;5002;-84
2021/12/15 02:12:35;;;;;;;2.22;1.75;;;;;;;8.29;74.83;101822.12;144994;583;5002;-84
2021/12/15 02:15:07;;;;;;;3.17;1.95;;;;;;;8.11;77.31;101829.72;144994;570;5002;-84
2021/12/15 02:17:34;;;;;;;2.33;2.08;;;;;;;8.15;77.37;101829.97;144994;621;5002;-84
2021/12/15 02:20:03;;;;;;;2.25;1.92;;;;;;;8.16;76.53;101828.28;144994;574;5002;-83
2021/12/15 02:22:30;;;;;;;2.60;1.92;;;;;;;8.11;76.27;101830.63;144994;581;5002;-84
2021/12/15 02:24:57;;;;;;;2.72;2.17;;;;;;;8.36;74.76;101819.94;144994;601;5002;-83
2021/12/15 02:27:30;;;;;;;2.15;1.90;;;;;;;8.36;75.36;101830.31;144994;607;5002;-84
2021/12/15 02:30:05;;;;;;;2.45;2.03;;;;;;;8.46;75.00;101831.78;144994;578;5002;-83
2021/12/15 02:32:47;;;;;;;2.80;2.20;;;;;;;8.43;74.83;101828.06;144994;601;5002;-84
2021/12/15 02:37:58;;;;;;;2.37;1.90;;;;;;;8.28;76.25;101833.28;144994;635;5004;-84
2021/12/15 02:40:24;;;;;;;2.33;2.10;;;;;;;8.37;75.72;101831.22;144994;584;5004;-84
2021/12/15 02:43:01;;;;;;;2.20;2.00;;;;;;;8.42;75.16;101827.19;144994;625;5004;-84
2021/12/15 02:45:29;;;;;;;2.80;2.30;;;;;;;8.46;75.14;101829.19;144994;606;5004;-82
2021/12/15 02:47:55;;;;;;;2.47;2.25;;;;;;;8.55;76.09;101833.09;144994;585;5004;-83
2021/12/15 02:50:25;;;;;;;3.70;2.40;;;;;;;8.31;76.78;101828.28;144994;593;5004;-82
2021/12/15 02:52:52;;;;;;;3.05;2.40;;;;;;;8.58;75.30;101825.50;144994;579;5004;-84
2021/12/15 02:55:19;;;;;;;3.00;2.58;;;;;;;8.75;73.96;101832.50;144993;649;5004;-84
2021/12/15 02:57:48;;;;;;;3.47;2.60;;;;;;;8.83;73.75;101840.69;144994;670;5002;-83
2021/12/15 03:00:24;;;;;;;3.42;2.70;;;;;;;8.92;73.05;101835.09;144994;636;5002;-84
2021/12/15 03:06:04;;;;;;;3.08;2.55;;;;;;;8.88;73.54;101829.75;144994;606;5004;-84
2021/12/15 03:16:49;;;;;;;2.42;2.10;;;;;;;8.45;74.23;101836.87;144994;609;5002;-84
2021/12/15 03:19:16;;;;;;;2.80;2.00;;;;;;;8.17;76.01;101841.31;144994;577;5002;-84
2021/12/15 03:21:42;;;;;;;2.78;2.10;;;;;;;8.23;75.38;101843.34;144994;624;5002;-84
2021/12/15 03:24:18;;;;;;;3.08;2.37;;;;;;;8.15;75.39;101852.38;144994;594;5002;-83
2021/12/15 03:26:57;;;;;;;2.28;2.05;;;;;;;8.08;75.22;101845.06;144994;707;5002;-86
2021/12/15 03:33:29;;;;;;;3.70;2.20;;;;;;;8.22;74.93;101856.22;144994;573;5004;-85
2021/12/15 03:35:32;;;;;;;2.53;2.10;;;;;;;8.27;74.69;101860.84;144994;594;5002;-83
2021/12/15 03:38:03;;;;;;;2.47;2.20;;;;;;;8.36;74.49;101871.69;144994;729;5002;-84
2021/12/15 03:40:39;;;;;;;2.60;2.22;;;;;;;8.58;74.01;101877.25;144994;590;5002;-84
2021/12/15 03:43:12;;;;;;;2.83;2.00;;;;;;;8.87;72.23;101876.28;144994;572;5002;-85
2021/12/15 03:45:50;;;;;;;2.90;2.40;;;;;;;9.08;71.92;101877.47;144994;614;5002;-85
2021/12/15 03:48:22;;;;;;;2.50;2.30;;;;;;;9.18;71.79;101883.12;144994;587;5004;-83
2021/12/15 03:50:48;;;;;;;2.28;1.98;;;;;;;9.31;71.23;101880.41;144993;584;5004;-83
2021/12/15 03:53:18;;;;;;;2.60;2.25;;;;;;;9.38;70.69;101874.72;144993;576;5002;-83
2021/12/15 03:55:45;;;;;;;2.22;2.03;;;;;;;9.44;70.58;101881.94;144994;680;5002;-85
2021/12/15 03:58:14;;;;;;;2.17;1.98;;;;;;;9.50;70.06;101886.56;144994;584;5002;-85
2021/12/15 04:00:47;;;;;;;3.03;2.28;;;;;;;9.19;69.19;101884.91;144994;589;5002;-82
2021/12/15 04:03:23;;;;;;;3.05;1.92;;;;;;;9.06;69.49;101894.59;144994;656;5002;-83
2021/12/15 04:05:50;;;;;;;3.00;2.30;;;;;;;8.95;70.63;101900.91;144993;689;5002;-83
2021/12/15 04:08:16;;;;;;;3.12;2.30;;;;;;;9.11;70.52;101900.03;144994;576;5002;-82
2021/12/15 04:10:43;;;;;;;3.47;2.55;;;;;;;9.16;70.23;101901.22;144994;654;5002;-83
2021/12/15 04:13:12;;;;;;;2.83;2.20;;;;;;;9.16;70.02;101889.94;144994;655;5002;-83
2021/12/15 04:15:46;;;;;;;2.58;2.30;;;;;;;8.85;69.23;101899.50;144994;565;5002;-84
2021/12/15 04:18:13;;;;;;;3.70;2.40;;;;;;;8.55;69.78;101890.03;144994;670;5002;-84
2021/12/15 04:20:43;;;;;;;3.12;2.80;;;;;;;8.55;69.83;101901.25;144994;578;5002;-84
2021/12/15 04:23:12;;;;;;;3.72;2.55;;;;;;;8.40;70.71;101896.09;144994;617;5002;-85
2021/12/15 04:25:41;;;;;;;3.62;2.92;;;;;;;8.46;70.92;101903.31;144994;580;5002;-84
2021/12/15 04:28:12;;;;;;;5.00;2.97;;;;;;;8.37;70.54;101901.09;144994;574;5002;-85
2021/12/15 04:30:48;;;;;;;3.55;3.00;;;;;;;8.34;70.45;101904.37;144994;569;5002;-84
2021/12/15 04:33:46;;;;;;;4.10;2.75;;;;;;;8.34;70.57;101903.50;144994;627;5002;-84
2021/12/15 04:36:22;;;;;;;3.28;2.95;;;;;;;8.23;70.59;101901.97;144994;597;5004;-84
2021/12/15 04:38:49;;;;;;;4.75;3.37;;;;;;;8.35;70.65;101901.00;144994;615;5004;-83
2021/12/15 04:41:18;;;;;;;3.33;2.67;;;;;;;8.24;71.21;101902.06;144994;573;5005;-85
2021/12/15 04:43:55;;;;;;;3.50;3.20;;;;;;;8.32;70.79;101910.28;144994;585;5004;-85
2021/12/15 04:46:34;;;;;;;5.45;3.35;;;;;;;8.49;70.29;101906.97;144994;604;5004;-82
2021/12/15 04:49:06;;;;;;;4.45;3.60;;;;;;;8.69;70.26;101913.28;144994;564;5005;-83
2021/12/15 04:51:34;;;;;;;4.53;3.62;;;;;;;8.58;70.03;101909.19;144994;580;5004;-83
2021/12/15 04:54:01;;;;;;;4.45;3.78;;;;;;;8.53;69.45;101908.94;144994;568;5004;-84
2021/12/15 04:56:28;;;;;;;3.90;3.40;;;;;;;8.47;69.36;101911.16;144994;607;4569;-83
2021/12/15 04:58:56;;;;;;;4.57;3.72;;;;;;;8.61;69.13;101922.31;144994;588;4574;-83
2021/12/15 05:01:24;;;;;;;8.20;3.65;;;;;;;8.63;69.44;101925.88;144994;651;4575;-84
2021/12/15 05:03:50;;;;;;;5.15;3.90;;;;;;;8.62;68.91;101923.19;144992;595;6005;-84
2021/12/15 05:06:17;;;;;;;4.82;4.32;;;;;;;8.52;69.35;101927.84;144992;609;6004;-83
2021/12/15 05:08:44;;;;;;;4.53;3.90;;;;;;;8.44;69.90;101926.53;144992;567;6004;-83
2021/12/15 05:11:12;;;;;;;5.90;4.62;;;;;;;8.53;69.59;101931.34;144992;608;6004;-83
2021/12/15 05:13:39;;;;;;;4.87;4.32;;;;;;;8.52;69.60;101932.16;144992;675;6004;-84
2021/12/15 05:16:08;;;;;;;6.35;4.10;;;;;;;8.64;69.44;101939.75;144992;598;6004;-84
2021/12/15 05:18:38;;;;;;;4.75;4.03;;;;;;;8.66;68.88;101939.00;144992;580;6004;-84
2021/12/15 05:21:15;;;;;;;5.97;4.07;;;;;;;8.67;69.15;101934.69;144992;726;6004;-84
2021/12/15 05:23:44;;;;;;;7.15;4.78;;;;;;;8.91;69.14;101953.34;144992;684;6004;-84
2021/12/15 05:26:20;;;;;;;6.97;4.55;;;;;;;8.89;68.30;101950.69;144992;625;6004;-85
2021/12/15 05:29:18;;;;;;;4.80;4.20;;;;;;;8.75;68.38;101954.19;144992;704;6004;-83
2021/12/15 05:31:45;;;;;;;5.37;4.30;;;;;;;8.80;68.28;101959.63;144992;563;6002;-84
2021/12/15 05:34:12;;;;;;;4.65;3.75;;;;;;;8.73;67.80;101960.94;144992;607;6002;-82
2021/12/15 05:36:39;;;;;;;5.70;4.12;;;;;;;8.63;68.38;101966.41;144992;637;6002;-86
2021/12/15 05:39:06;;;;;;;6.07;4.10;;;;;;;8.64;68.36;101957.84;144992;571;6002;-82
2021/12/15 05:41:35;;;;;;;5.20;4.00;;;;;;;8.67;68.27;101966.69;144992;674;6002;-84
2021/12/15 05:44:04;;;;;;;6.35;4.40;;;;;;;8.61;68.85;101971.50;144992;573;6002;-84
2021/12/15 05:46:31;;;;;;;7.18;4.10;;;;;;;8.58;68.33;101971.31;144992;573;6002;-84
2021/12/15 05:48:58;;;;;;;6.03;3.67;;;;;;;8.48;68.71;101976.78;144992;709;6002;-83
2021/12/15 05:51:24;;;;;;;4.93;4.07;;;;;;;8.52;68.84;101971.84;144992;607;6002;-81
2021/12/15 05:53:51;;;;;;;4.87;4.03;;;;;;;8.43;68.82;101978.16;144992;563;6002;-80
2021/12/15 05:56:21;;;;;;;5.22;4.30;;;;;;;8.48;68.94;101981.97;144992;585;6002;-82
2021/12/15 05:58:47;;;;;;;5.00;4.30;;;;;;;8.64;68.37;101982.03;144992;691;6002;-83
2021/12/15 06:01:14;;;;;;;5.18;4.20;;;;;;;8.63;68.10;101981.94;144992;582;6002;-83
2021/12/15 06:03:42;;;;;;;5.95;4.65;;;;;;;8.82;68.05;101981.31;144992;569;6002;-82
2021/12/15 06:06:09;;;;;;;5.00;4.40;;;;;;;8.76;68.48;101987.00;144992;586;6002;-82
2021/12/15 06:08:36;;;;;;;7.20;4.75;;;;;;;8.80;68.34;101990.69;144992;576;6002;-83
2021/12/15 06:11:03;;;;;;;6.12;4.55;;;;;;;9.00;67.70;101995.28;144992;573;6002;-84
2021/12/15 06:13:30;;;;;;;5.53;4.62;;;;;;;9.00;67.81;102000.47;144992;585;6002;-84
2021/12/15 06:15:58;;;;;;;6.12;4.70;;;;;;;9.08;67.83;101999.22;144992;593;6002;-83
2021/12/15 06:18:25;;;;;;;5.07;4.25;;;;;;;8.99;67.43;101993.53;144992;571;6002;-84
2021/12/15 06:20:54;;;;;;;5.22;4.35;;;;;;;9.02;67.21;102004.06;144992;574;6002;-83
2021/12/15 06:23:22;;;;;;;6.07;4.80;;;;;;;9.14;67.63;102005.53;144992;599;6002;-82
2021/12/15 06:25:55;;;;;;;5.35;4.12;;;;;;;9.06;67.49;102003.41;144992;628;6002;-85
2021/12/15 06:28:24;;;;;;;5.35;4.50;;;;;;;9.20;67.41;102000.72;144992;608;6002;-88
2021/12/15 06:30:50;;;;;;;7.82;5.03;;;;;;;9.28;67.15;102004.62;144992;600;6002;-89
2021/12/15 06:33:17;;;;;;;7.00;5.40;;;;;;;9.47;67.17;102003.06;144992;601;6002;-86
2021/12/15 06:35:58;;;;;;;7.55;5.97;;;;;;;9.38;67.29;102011.19;144992;635;6002;-85
2021/12/15 06:38:28;;;;;;;6.72;5.90;;;;;;;9.28;67.27;102014.97;144992;599;6002;-86
2021/12/15 06:40:55;;;;;;;8.02;5.15;;;;;;;9.51;66.69;102012.75;144992;607;6002;-87
2021/12/15 06:43:26;;;;;;;9.25;5.20;;;;;;;9.71;67.14;102006.06;144992;587;6002;-83
2021/12/15 07:00:11;;;;;;;5.62;4.70;;;;;;;9.38;65.75;102016.37;144992;569;6004;-86
2021/12/15 07:02:39;;;;;;;7.05;4.50;;;;;;;9.31;66.55;102016.87;144992;592;6004;-85
2021/12/15 07:05:08;;;;;;;6.22;4.65;;;;;;;9.44;66.21;102016.72;144992;562;6004;-83
2021/12/15 07:07:36;;;;;;;5.35;4.55;;;;;;;9.53;65.19;102012.06;144992;567;6004;-85
2021/12/15 07:10:05;;;;;;;5.80;5.20;;;;;;;9.49;65.87;102030.81;144992;591;6004;-85
2021/12/15 07:12:32;;;;;;;7.03;4.72;;;;;;;9.54;66.07;102023.31;144992;578;6004;-85
2021/12/15 07:14:58;;;;;;;7.10;5.40;;;;;;;9.70;65.61;102032.81;144992;634;6004;-85
2021/12/15 07:17:25;;;;;;;5.60;5.05;;;;;;;9.75;65.58;102027.06;144992;606;6004;-85
2021/12/15 07:20:17;;;;;;;7.03;5.72;;;;;;;9.77;65.59;102035.81;144992;625;6004;-86
2021/12/15 07:22:44;;;;;;;8.93;5.47;;;;;;;9.72;65.96;102034.69;144992;601;6004;-87
2021/12/15 07:25:13;;;;;;;6.90;4.60;;;;;;;9.71;65.93;102038.06;144992;576;6005;-86
2021/12/15 07:27:43;;;;;;;6.30;4.72;;;;;;;9.55;65.54;102040.66;144992;581;6004;-88
2021/12/15 07:30:12;;;;;;;5.78;4.57;;;;;;;9.69;64.92;102050.06;144992;608;6004;-87
2021/12/15 07:32:41;;;;;;;6.62;4.68;;;;;;;9.76;64.10;102049.59;144992;629;6005;-86
2021/12/15 07:35:12;;;;;;;5.50;4.68;;;;;;;9.78;64.10;102049.66;144992;585;6004;-86
2021/12/15 07:37:42;;;;;;;5.97;4.22;;;;;;;9.75;64.12;102044.31;144992;589;6004;-85
2021/12/15 07:40:19;;;;;;;7.32;4.18;;;;;;;9.70;63.65;102054.44;144992;690;6005;-85
2021/12/15 07:45:52;;;;;;;5.65;4.32;;;;;;;9.52;64.29;102045.66;144992;569;6002;-85
2021/12/15 07:48:34;;;;;;;5.97;4.00;;;;;;;9.39;64.75;102052.75;144992;607;6002;-85
2021/12/15 07:51:04;;;;;;;4.90;4.40;;;;;;;9.38;63.91;102039.72;144992;603;6002;-86
2021/12/15 07:53:31;;;;;;;5.47;3.72;;;;;;;9.24;63.90;102041.50;144992;580;6002;-88
2021/12/15 07:56:02;;;;;;;5.10;4.00;;;;;;;9.26;63.94;102051.16;144992;572;6002;-81
2021/12/15 07:58:31;;;;;;;4.35;3.83;;;;;;;9.21;64.49;102054.28;144992;577;6002;-86
2021/12/15 08:01:01;;;;;;;6.95;4.43;;;;;;;9.20;64.40;102057.72;144992;581;6002;-85
2021/12/15 08:03:31;;;;;;;5.32;4.35;;;;;;;9.22;64.55;102056.09;144992;564;6002;-83
2021/12/15 08:06:28;;;;;;;8.70;4.80;;;;;;;9.37;64.76;102067.34;144992;577;6002;-86
2021/12/15 08:09:04;;;;;;;5.93;4.78;;;;;;;9.41;64.62;102068.38;144992;622;6002;-85
2021/12/15 08:11:41;;;;;;;6.50;5.07;;;;;;;9.80;63.86;102076.59;144992;570;6002;-85
2021/12/15 08:14:15;;;;;;;7.15;4.82;;;;;;;9.78;64.25;102076.50;144992;728;6002;-87
2021/12/15 08:16:45;;;;;;;6.78;4.25;;;;;;;9.84;63.42;102075.06;144991;571;6002;-87
2021/12/15 08:19:15;;;;;;;7.97;4.82;;;;;;;9.80;63.71;102074.88;144992;618;6002;-88
2021/12/15 08:21:42;;;;;;;7.82;5.50;;;;;;;10.13;63.44;102085.31;144992;575;6002;-84
2021/12/15 08:24:10;;;;;;;7.22;5.45;;;;;;;10.39;63.03;102071.94;144992;580;6002;-86
2021/12/15 08:26:37;;;;;;;9.70;5.68;;;;;;;10.75;62.99;102078.13;144992;611;6002;-85
2021/12/15 08:29:04;;;;;;;7.35;5.00;;;;;;;10.83;61.79;102079.44;144992;606;6002;-86
2021/12/15 08:31:31;;;;;;;5.95;5.35;;;;;;;10.94;62.28;102087.75;144992;608;6002;-85
2021/12/15 08:33:58;;;;;;;7.07;5.07;;;;;;;10.71;61.73;102090.06;144992;595;6002;-86
2021/12/15 08:36:24;;;;;;;11.38;5.28;;;;;;;10.65;61.88;102084.56;144992;569;6002;-86
2021/12/15 08:38:52;;;;;;;6.80;4.72;;;;;;;10.43;61.39;102085.16;144992;569;6002;-86
2021/12/15 08:41:22;;;;;;;7.62;4.40;;;;;;;10.28;61.73;102093.00;144992;595;6002;-83
2021/12/15 08:43:50;;;;;;;6.87;5.15;;;;;;;10.33;62.48;102093.28;144992;608;6002;-85
2021/12/15 08:46:22;;;;;;;6.45;5.25;;;;;;;10.41;63.05;102086.78;144992;582;6002;-85
2021/12/15 08:48:53;;;;;;;7.72;4.90;;;;;;;10.40;62.14;102074.59;144992;637;6002;-87
2021/12/15 08:51:25;;;;;;;6.55;5.25;;;;;;;10.29;62.40;102074.03;144992;602;6002;-86
2021/12/15 08:54:11;;;;;;;6.30;4.78;;;;;;;10.09;61.22;102066.91;144992;606;6002;-86
2021/12/15 08:56:38;;;;;;;7.40;5.40;;;;;;;10.04;62.11;102065.72;144992;607;6002;-87
2021/12/15 08:59:06;;;;;;;5.25;4.35;;;;;;;9.94;61.21;102065.28;144992;636;6002;-86
2021/12/15 09:01:35;;;;;;;5.65;3.80;;;;;;;9.84;60.71;102056.91;144992;577;6002;-86
2021/12/15 09:04:02;;;;;;;5.70;3.60;;;;;;;9.86;60.03;102056.16;144992;569;6002;-87
2021/12/15 09:06:29;;;;;;;3.80;3.22;;;;;;;9.89;59.74;102060.63;144992;645;6002;-84
2021/12/15 09:08:56;;;;;;;4.95;3.30;;;;;;;9.89;59.16;102056.31;144992;597;6002;-86
2021/12/15 09:11:26;;;;;;;5.57;4.20;;;;;;;10.12;60.24;102062.75;144992;572;6002;-83
2021/12/15 09:13:55;;;;;;;5.43;3.87;;;;;;;10.31;58.97;102056.84;144992;596;6002;-86
2021/12/15 09:16:23;;;;;;;6.10;4.12;;;;;;;10.62;58.17;102049.75;144992;594;6002;-84
2021/12/15 09:18:51;;;;;;;7.20;4.03;;;;;;;10.95;58.43;102052.28;144992;625;6002;-85
2021/12/15 09:21:20;;;;;;;6.25;3.90;;;;;;;11.31;55.86;102042.78;144992;569;6002;-85
2021/12/15 09:23:47;;;;;;;4.10;3.60;;;;;;;11.66;55.41;102043.56;144992;658;6002;-87
2021/12/15 09:26:14;;;;;;;4.20;3.58;;;;;;;11.82;54.57;102050.34;144992;655;6002;-84
2021/12/15 09:28:41;;;;;;;4.45;3.42;;;;;;;11.59;53.88;102029.34;144992;570;6002;-84
2021/12/15 09:31:11;;;;;;;5.32;3.85;;;;;;;11.64;54.78;102032.16;144992;589;6002;-85
2021/12/15 09:33:41;;;;;;;5.90;3.65;;;;;;;11.29;54.64;102035.72;144992;567;6002;-85
2021/12/15 09:36:10;;;;;;;5.43;3.20;;;;;;;10.98;54.40;102024.72;144992;649;6002;-86
2021/12/15 09:38:38;;;;;;;4.45;3.20;;;;;;;11.18;56.32;102027.41;144992;615;6002;-84
2021/12/15 09:41:08;;;;;;;7.30;3.30;;;;;;;10.91;54.86;102022.63;144992;588;6002;-87
2021/12/15 09:43:44;;;;;;;7.82;3.85;;;;;;;11.10;54.78;102018.34;144992;615;6002;-84
2021/12/15 10:03:45;;;;;;;4.22;3.05;;;;;;;12.40;50.44;102002.59;144992;634;6004;-89
2021/12/15 10:11:57;;;;;;;4.75;3.20;;;;;;;11.94;52.01;101991.06;144992;617;6004;-86
2021/12/15 10:20:01;;;;;;;3.47;2.83;;;;;;;11.53;51.88;101999.56;144992;622;6004;-86
2021/12/15 10:22:46;;;;;;;5.37;3.15;;;;;;;11.43;52.73;101999.13;144992;573;6004;-85
2021/12/15 10:25:34;;;;;;;7.50;4.22;;;;;;;11.43;51.70;101991.34;144992;594;6004;-84
2021/12/15 10:28:15;;;;;;;6.57;3.03;;;;;;;11.60;52.57;102002.53;144992;584;6012;-87
2021/12/15 10:31:13;;;;;;;5.97;3.35;;;;;;;12.12;54.32;102005.72;144992;652;6004;-85
2021/12/15 10:33:47;;;;;;;6.90;3.97;;;;;;;12.86;51.36;102003.66;144991;591;6002;-86
2021/12/15 10:36:26;;;;;;;6.35;3.40;;;;;;;13.47;47.90;102007.81;144992;563;6002;-86
2021/12/15 10:39:01;;;;;;;3.85;2.90;;;;;;;13.63;46.33;102005.78;144992;563;6002;-84
2021/12/15 10:41:40;;;;;;;4.37;2.87;;;;;;;13.71;45.32;102002.66;144992;639;6002;-84
2021/12/15 10:44:31;;;;;;;4.65;3.40;;;;;;;14.27;49.91;102004.62;144992;615;6002;-85
2021/12/15 10:47:04;;;;;;;5.15;3.42;;;;;;;14.21;43.66;101994.88;144992;603;6004;-85
2021/12/15 10:49:34;;;;;;;3.30;2.25;;;;;;;13.90;42.17;102005.94;144992;617;6004;-85
2021/12/15 10:52:12;;;;;;;3.50;2.30;;;;;;;13.87;44.21;102009.34;144992;571;6004;-87
2021/12/15 10:54:50;;;;;;;4.97;2.40;;;;;;;13.87;41.66;102003.22;144992;583;6004;-88
2021/12/15 10:57:20;;;;;;;4.60;2.55;;;;;;;13.98;44.50;102001.88;144992;619;6002;-84
2021/12/15 10:59:50;;;;;;;3.67;3.00;;;;;;;14.02;41.26;102003.78;144992;594;6002;-87
2021/12/15 11:02:27;;;;;;;2.92;2.47;;;;;;;14.11;42.30;102004.13;144992;583;6002;-88
2021/12/15 11:05:02;;;;;;;3.03;1.92;;;;;;;14.00;41.23;102000.22;144992;565;6002;-86
2021/12/15 11:07:43;;;;;;;3.65;2.22;;;;;;;14.15;42.57;101990.31;144992;612;6002;-86
2021/12/15 11:10:26;;;;;;;2.58;2.20;;;;;;;14.28;45.42;101993.34;144992;566;6002;-86
2021/12/15 11:13:06;;;;;;;2.90;2.20;;;;;;;13.88;41.21;101990.22;144992;655;6002;-84
2021/12/15 11:15:40;;;;;;;3.70;2.75;;;;;;;14.30;43.83;101996.91;144993;601;6002;-84
2021/12/15 11:18:18;;;;;;;3.87;2.40;;;;;;;14.18;42.26;101986.94;144993;640;6002;-86
2021/12/15 11:20:58;;;;;;;3.42;2.47;;;;;;;14.19;42.69;101982.59;144993;610;6002;-84
2021/12/15 11:23:27;;;;;;;3.55;2.75;;;;;;;14.08;41.29;101985.72;144993;601;6002;-86
2021/12/15 11:26:05;;;;;;;3.58;2.85;;;;;;;14.38;42.90;101974.56;144993;570;6002;-86
2021/12/15 11:28:39;;;;;;;3.97;2.97;;;;;;;13.91;43.03;101977.28;144993;563;6002;-84
2021/12/15 11:31:31;;;;;;;3.67;2.70;;;;;;;14.06;43.08;101976.97;144993;639;6002;-88
2021/12/15 11:34:01;;;;;;;4.53;3.10;;;;;;;14.48;45.26;101976.66;144993;564;6002;-85
2021/12/15 11:36:33;;;;;;;3.95;2.53;;;;;;;14.59;43.60;101976.13;144993;581;6002;-87
2021/12/15 11:39:11;;;;;;;2.83;2.20;;;;;;;14.50;41.00;101972.34;144993;594;6002;-86
2021/12/15 11:41:44;;;;;;;3.53;2.22;;;;;;;14.55;42.53;101972.50;144993;564;6003;-86
2021/12/15 11:44:27;;;;;;;3.75;2.35;;;;;;;14.58;40.65;101966.50;144993;582;6002;-86
2021/12/15 11:47:03;;;;;;;3.25;2.53;;;;;;;14.72;44.57;101970.50;144992;572;6002;-88
2021/12/15 11:49:37;;;;;;;4.28;2.60;;;;;;;14.55;43.82;101958.56;144992;632;6002;-87
2021/12/15 11:52:09;;;;;;;2.65;2.00;;;;;;;14.81;44.43;101973.41;144992;579;6002;-86
2021/12/15 11:54:44;;;;;;;2.78;2.50;;;;;;;15.02;42.94;101960.13;144992;570;6002;-85
2021/12/15 11:57:23;;;;;;;2.62;2.30;;;;;;;15.26;43.88;101969.56;144992;558;6002;-84
2021/12/15 11:59:53;;;;;;;3.10;2.40;;;;;;;15.39;43.99;101966.47;144991;565;6002;-85
2021/12/15 12:02:26;;;;;;;2.92;2.40;;;;;;;15.49;42.35;101957.16;144993;611;6002;-84
2021/12/15 12:05:08;;;;;;;6.68;4.53;;;;;;;14.84;40.56;101944.75;144993;604;6002;-84
2021/12/15 12:07:42;;;;;;;9.95;6.15;;;;;;;14.62;40.65;101955.34;144993;616;6002;-84
2021/12/15 12:10:21;;;;;;;4.55;3.70;;;;;;;14.62;41.48;101955.34;144993;573;6002;-84
2021/12/15 12:12:54;;;;;;;4.93;2.65;;;;;;;14.29;40.75;101949.00;144993;596;6002;-84
2021/12/15 12:15:24;;;;;;;2.87;2.33;;;;;;;14.42;44.23;101954.66;144993;627;6002;-85
2021/12/15 12:17:54;;;;;;;2.92;2.42;;;;;;;14.30;41.98;101955.13;144993;622;6002;-84
2021/12/15 12:20:45;;;;;;;3.25;2.25;;;;;;;14.24;43.23;101958.41;144993;581;6002;-85
2021/12/15 12:23:19;;;;;;;3.00;2.50;;;;;;;14.54;44.16;101959.37;144993;616;6002;-85
2021/12/15 12:25:48;;;;;;;3.12;2.25;;;;;;;14.13;43.89;101954.56;144993;575;6002;-86
2021/12/15 12:28:24;;;;;;;3.33;2.83;;;;;;;14.27;43.11;101955.00;144993;626;6002;-84
2021/12/15 12:30:57;;;;;;;2.75;2.45;;;;;;;14.40;44.81;101957.22;144993;574;6002;-87
2021/12/15 12:33:27;;;;;;;2.53;2.33;;;;;;;13.86;42.14;101950.12;144993;615;6002;-84
2021/12/15 12:36:04;;;;;;;5.45;2.50;;;;;;;13.73;41.73;101943.56;144993;591;6002;-87
2021/12/15 12:38:34;;;;;;;2.60;2.40;;;;;;;13.71;43.91;101947.88;144993;592;6002;-84
2021/12/15 12:41:11;;;;;;;3.12;2.40;;;;;;;14.13;43.83;101947.59;144993;599;6002;-87
2021/12/15 12:43:49;;;;;;;3.42;2.62;;;;;;;13.94;44.41;101946.06;144993;579;6002;-84
2021/12/15 12:46:46;;;;;;;3.80;2.50;;;;;;;13.27;42.79;101946.13;144993;596;6002;-86
2021/12/15 13:01:20;;;;;;;2.97;2.65;;;;;;;12.84;45.07;101961.00;144994;613;5002;-85
2021/12/15 13:03:56;;;;;;;3.10;2.80;;;;;;;12.95;45.35;101959.72;144994;579;5002;-85
2021/12/15 13:06:26;;;;;;;4.20;2.70;;;;;;;12.61;44.16;101962.66;144994;592;5002;-84
2021/12/15 13:09:10;;;;;;;4.20;2.87;;;;;;;12.47;44.15;101970.81;144994;626;5002;-86
2021/12/15 13:11:39;;;;;;;3.70;2.45;;;;;;;12.25;44.14;101974.22;144994;606;5002;-85
2021/12/15 13:14:15;;;;;;;4.12;2.28;;;;;;;12.46;44.73;101973.34;144994;575;5002;-85
2021/12/15 13:16:54;;;;;;;3.53;2.65;;;;;;;12.18;45.71;101985.16;144994;619;5002;-86
2021/12/15 13:19:25;;;;;;;4.53;2.62;;;;;;;12.20;46.12;101986.16;144994;604;5002;-85
2021/12/15 13:31:22;;;;;;;4.03;2.92;;;;;;;11.64;47.12;101984.47;144994;592;5004;-83
2021/12/15 13:33:52;;;;;;;5.10;3.03;;;;;;;11.57;47.71;101984.19;144994;582;5002;-82
2021/12/15 13:36:42;;;;;;;4.97;3.20;;;;;;;11.66;48.12;101988.94;144994;581;5002;-84